createdAt,value
2023-01-15T00:01:27.009Z,1.50
2023-01-15T00:03:01.452Z,1.40
2023-01-15T00:04:35.132Z,1.63
2023-01-15T00:06:07.278Z,1.40
2023-01-15T00:07:40.407Z,1.57
2023-01-15T00:09:16.555Z,1.90
2023-01-15T00:10:49.633Z,1.70
2023-01-15T00:12:22.751Z,1.60
2023-01-15T00:13:56.906Z,1.93
2023-01-15T00:15:29.955Z,2.00
2023-01-15T00:17:03.009Z,1.80
2023-01-15T00:18:36.454Z,1.73
2023-01-15T00:20:11.300Z,1.67
2023-01-15T00:21:44.388Z,1.80
2023-01-15T00:23:37.984Z,1.90
2023-01-15T00:25:29.182Z,1.87
2023-01-15T00:27:19.783Z,1.70
2023-01-15T00:28:53.073Z,1.80
2023-01-15T00:30:26.199Z,1.67
2023-01-15T00:32:03.598Z,1.70
2023-01-15T00:33:38.089Z,1.83
2023-01-15T00:35:14.624Z,1.87
2023-01-15T00:36:48.506Z,1.90
2023-01-15T00:38:21.625Z,1.83
2023-01-15T00:39:54.711Z,1.90
2023-01-15T00:41:27.928Z,2.10
2023-01-15T00:43:01.019Z,2.03
2023-01-15T00:44:34.264Z,1.90
2023-01-15T00:46:08.534Z,1.60
2023-01-15T00:47:43.068Z,1.70
2023-01-15T00:49:17.735Z,1.80
2023-01-15T00:50:50.812Z,1.80
2023-01-15T00:52:24.127Z,1.40
2023-01-15T00:53:57.315Z,1.50
2023-01-15T00:55:30.386Z,1.40
2023-01-15T00:57:03.612Z,1.50
2023-01-15T00:58:36.819Z,1.67
2023-01-15T01:00:12.440Z,1.60
2023-01-15T01:01:46.186Z,1.70
2023-01-15T01:03:19.549Z,1.57
2023-01-15T01:04:54.081Z,1.60
2023-01-15T01:06:26.497Z,1.57
2023-01-15T01:08:00.204Z,1.80
2023-01-15T01:09:34.448Z,1.70
2023-01-15T01:11:10.192Z,1.50
2023-01-15T01:12:43.280Z,1.50
2023-01-15T01:14:16.423Z,1.70
2023-01-15T01:15:49.526Z,2.30
2023-01-15T01:17:22.765Z,2.70
2023-01-15T01:18:55.007Z,3.20
2023-01-15T01:20:29.780Z,3.00
2023-01-15T01:22:02.851Z,3.30
2023-01-15T01:23:35.967Z,3.10
2023-01-15T01:25:10.097Z,3.40
2023-01-15T01:26:45.349Z,3.70
2023-01-15T01:28:18.584Z,3.47
2023-01-15T01:29:51.677Z,3.70
2023-01-15T01:31:25.463Z,3.30
2023-01-15T01:32:58.722Z,3.30
2023-01-15T01:34:31.785Z,3.67
2023-01-15T01:36:06.592Z,3.50
2023-01-15T01:37:38.962Z,3.40
2023-01-15T01:39:14.899Z,3.27
2023-01-15T01:40:48.787Z,3.47
2023-01-15T01:42:22.460Z,3.20
2023-01-15T01:43:59.213Z,3.00
2023-01-15T01:45:34.859Z,2.80
2023-01-15T01:47:10.876Z,3.23
2023-01-15T01:48:44.368Z,2.80
2023-01-15T01:50:17.823Z,3.00
2023-01-15T01:51:57.462Z,2.70
2023-01-15T01:53:33.221Z,2.40
2023-01-15T01:55:08.534Z,2.80
2023-01-15T01:56:41.952Z,2.77
2023-01-15T01:58:15.753Z,2.77
2023-01-15T01:59:50.244Z,2.80
2023-01-15T02:01:25.669Z,2.80
2023-01-15T02:02:59.136Z,2.23
2023-01-15T02:04:32.458Z,2.13
2023-01-15T02:06:11.494Z,2.40
2023-01-15T02:07:46.294Z,2.23
2023-01-15T02:09:19.587Z,2.20
2023-01-15T02:10:55.749Z,2.47
2023-01-15T02:12:39.492Z,2.47
2023-01-15T02:14:20.838Z,2.40
2023-01-15T02:16:01.952Z,2.67
2023-01-15T02:17:39.478Z,2.67
2023-01-15T02:19:23.710Z,2.30
2023-01-15T02:21:00.182Z,2.70
2023-01-15T02:22:45.083Z,2.23
2023-01-15T02:24:32.405Z,2.20
2023-01-15T02:26:31.468Z,2.20
2023-01-15T02:28:11.639Z,2.00
2023-01-15T02:29:56.107Z,2.00
2023-01-15T02:31:35.395Z,2.03
2023-01-15T02:33:13.119Z,1.70
2023-01-15T02:34:51.188Z,1.50
2023-01-15T02:36:27.630Z,1.60
2023-01-15T02:38:06.324Z,1.60
2023-01-15T02:39:43.392Z,1.60
2023-01-15T02:41:20.616Z,1.70
2023-01-15T02:42:55.895Z,1.37
2023-01-15T02:44:32.454Z,1.20
2023-01-15T02:46:09.011Z,1.20
2023-01-15T02:47:44.708Z,1.10
2023-01-15T02:49:20.801Z,0.90
2023-01-15T02:51:00.060Z,0.90
2023-01-15T02:52:36.933Z,1.10
2023-01-15T02:54:14.174Z,0.93
2023-01-15T02:55:51.380Z,0.90
2023-01-15T02:57:32.324Z,0.87
2023-01-15T02:59:09.088Z,0.93
2023-01-15T03:00:46.747Z,1.10
2023-01-15T03:02:24.654Z,0.90
2023-01-15T03:04:04.467Z,0.90
2023-01-15T03:05:42.423Z,1.00
2023-01-15T03:07:20.768Z,0.80
2023-01-15T03:08:54.229Z,0.80
2023-01-15T03:10:38.155Z,0.70
2023-01-15T03:12:16.888Z,0.90
2023-01-15T03:13:59.058Z,0.90
2023-01-15T03:15:59.016Z,0.70
2023-01-15T03:17:38.850Z,0.70
2023-01-15T03:19:21.474Z,0.80
2023-01-15T03:21:00.372Z,0.80
2023-01-15T03:22:37.006Z,0.80
2023-01-15T03:24:13.086Z,0.80
2023-01-15T03:25:49.998Z,0.80
2023-01-15T03:27:24.499Z,0.70
2023-01-15T03:29:03.583Z,0.70
2023-01-15T03:30:36.722Z,0.83
2023-01-15T03:32:09.649Z,0.80
2023-01-15T03:33:44.348Z,0.70
2023-01-15T03:35:46.021Z,0.80
2023-01-15T03:37:27.375Z,0.80
2023-01-15T03:39:01.566Z,0.90
2023-01-15T03:41:16.836Z,0.90
2023-01-15T03:43:15.559Z,0.77
2023-01-15T03:44:58.771Z,0.80
2023-01-15T03:46:55.594Z,1.00
2023-01-15T03:48:33.677Z,1.17
2023-01-15T03:50:18.746Z,1.17
2023-01-15T03:52:00.746Z,1.10
2023-01-15T03:53:40.522Z,1.17
2023-01-15T03:55:16.945Z,1.07
2023-01-15T03:57:04.821Z,1.30
2023-01-15T03:58:43.219Z,1.20
2023-01-15T04:00:24.242Z,1.20
2023-01-15T04:02:03.169Z,1.30
2023-01-15T04:03:37.517Z,1.17
2023-01-15T04:05:13.813Z,1.20
2023-01-15T04:06:47.405Z,1.53
2023-01-15T04:08:21.393Z,1.67
2023-01-15T04:09:56.472Z,1.90
2023-01-15T04:11:29.590Z,1.80
2023-01-15T04:13:08.390Z,2.30
2023-01-15T04:14:41.709Z,2.43
2023-01-15T04:16:23.875Z,2.27
2023-01-15T04:17:57.061Z,2.40
2023-01-15T04:19:30.714Z,2.10
2023-01-15T04:21:11.469Z,1.93
2023-01-15T04:22:44.586Z,2.23
2023-01-15T04:24:16.707Z,2.30
2023-01-15T04:25:49.761Z,1.90
2023-01-15T04:27:22.950Z,2.13
2023-01-15T04:28:56.085Z,2.07
2023-01-15T04:30:29.215Z,1.90
2023-01-15T04:32:02.280Z,1.83
2023-01-15T04:33:34.520Z,2.03
2023-01-15T04:35:08.209Z,2.13
2023-01-15T04:36:43.224Z,1.73
2023-01-15T04:38:17.908Z,1.73
2023-01-15T04:39:51.014Z,1.93
2023-01-15T04:41:41.499Z,2.10
2023-01-15T04:43:32.890Z,2.27
2023-01-15T04:45:06.999Z,1.70
2023-01-15T04:46:42.483Z,1.60
2023-01-15T04:48:15.579Z,1.97
2023-01-15T04:49:48.795Z,1.90
2023-01-15T04:51:20.890Z,1.90
2023-01-15T04:52:55.355Z,1.97
2023-01-15T04:54:28.415Z,2.10
2023-01-15T04:56:01.762Z,1.83
2023-01-15T04:57:35.412Z,1.77
2023-01-15T04:59:09.361Z,2.03
2023-01-15T05:00:41.653Z,1.83
2023-01-15T05:02:15.733Z,1.77
2023-01-15T05:03:47.889Z,1.70
2023-01-15T05:05:20.929Z,1.60
2023-01-15T05:06:54.134Z,1.37
2023-01-15T05:08:28.864Z,1.30
2023-01-15T05:10:01.995Z,1.60
2023-01-15T05:11:35.978Z,1.10
2023-01-15T05:13:09.100Z,1.23
2023-01-15T05:14:42.171Z,1.00
2023-01-15T05:16:16.845Z,1.07
2023-01-15T05:17:49.967Z,1.00
2023-01-15T05:19:23.051Z,1.00
2023-01-15T05:20:56.354Z,0.80
2023-01-15T05:22:29.563Z,1.00
2023-01-15T05:24:06.835Z,0.93
2023-01-15T05:25:39.980Z,0.90
2023-01-15T05:27:13.048Z,0.77
2023-01-15T05:28:46.614Z,1.00
2023-01-15T05:30:19.976Z,0.77
2023-01-15T05:31:53.062Z,1.00
2023-01-15T05:33:25.192Z,0.90
2023-01-15T05:34:58.269Z,0.90
2023-01-15T05:36:33.204Z,1.10
2023-01-15T05:38:06.907Z,1.10
2023-01-15T05:39:41.362Z,1.00
2023-01-15T05:41:34.266Z,1.30
2023-01-15T05:43:07.366Z,1.10
2023-01-15T05:44:40.547Z,1.30
2023-01-15T05:46:12.717Z,1.40
2023-01-15T05:47:46.096Z,1.70
2023-01-15T05:49:21.413Z,1.60
2023-01-15T05:50:54.554Z,1.87
2023-01-15T05:52:27.641Z,2.10
2023-01-15T05:54:00.999Z,2.03
2023-01-15T05:55:35.480Z,1.80
2023-01-15T05:57:11.440Z,1.90
2023-01-15T05:58:43.534Z,2.00
2023-01-15T06:00:17.577Z,1.80
2023-01-15T06:01:50.888Z,1.77
2023-01-15T06:03:24.413Z,2.03
2023-01-15T06:04:57.479Z,1.50
2023-01-15T06:06:31.477Z,1.60
2023-01-15T06:08:04.659Z,1.77
2023-01-15T06:09:37.926Z,1.50
2023-01-15T06:11:12.715Z,1.57
2023-01-15T06:12:46.036Z,1.60
2023-01-15T06:14:19.157Z,1.70
2023-01-15T06:15:52.304Z,1.57
2023-01-15T06:17:25.408Z,1.70
2023-01-15T06:19:04.015Z,1.60
2023-01-15T06:20:37.298Z,1.40
2023-01-15T06:22:11.096Z,1.70
2023-01-15T06:23:45.237Z,1.60
2023-01-15T06:25:18.452Z,1.63
2023-01-15T06:26:52.968Z,1.60
2023-01-15T06:28:25.107Z,1.90
2023-01-15T06:29:59.079Z,1.70
2023-01-15T06:31:32.670Z,1.70
2023-01-15T06:33:06.159Z,1.80
2023-01-15T06:34:39.248Z,1.60
2023-01-15T06:36:14.826Z,1.83
2023-01-15T06:37:47.884Z,1.97
2023-01-15T06:39:21.037Z,1.67
2023-01-15T06:40:53.160Z,1.90
2023-01-15T06:42:44.965Z,1.90
2023-01-15T06:44:37.177Z,2.13
2023-01-15T06:46:28.494Z,1.97
2023-01-15T06:48:02.436Z,1.77
2023-01-15T06:49:36.773Z,1.73
2023-01-15T06:51:09.889Z,1.80
2023-01-15T06:52:43.190Z,2.00
2023-01-15T06:54:15.261Z,1.73
2023-01-15T06:55:48.967Z,2.20
2023-01-15T06:57:22.471Z,1.97
2023-01-15T06:58:57.351Z,0.87
2023-01-15T07:00:30.669Z,0.40
2023-01-15T07:02:03.922Z,0.70
2023-01-15T07:03:37.145Z,0.60
2023-01-15T07:05:10.846Z,0.70
2023-01-15T07:06:44.407Z,0.50
2023-01-15T07:08:17.531Z,0.43
2023-01-15T07:09:51.101Z,0.43
2023-01-15T07:11:24.276Z,0.60
2023-01-15T07:12:57.516Z,0.50
2023-01-15T07:14:33.166Z,0.60
2023-01-15T07:16:27.040Z,0.70
2023-01-15T07:18:00.196Z,0.53
2023-01-15T07:19:33.325Z,0.70
2023-01-15T07:21:06.562Z,0.70
2023-01-15T07:22:39.670Z,0.77
2023-01-15T07:24:13.059Z,0.80
2023-01-15T07:25:46.152Z,0.90
2023-01-15T07:27:19.286Z,0.70
2023-01-15T07:28:51.404Z,0.60
2023-01-15T07:30:25.822Z,0.90
2023-01-15T07:31:59.129Z,0.70
2023-01-15T07:33:31.293Z,0.80
2023-01-15T07:35:04.445Z,1.10
2023-01-15T07:36:37.962Z,1.13
2023-01-15T07:38:11.106Z,1.40
2023-01-15T07:39:44.204Z,1.40
2023-01-15T07:41:34.838Z,1.53
2023-01-15T07:43:25.902Z,1.40
2023-01-15T07:45:16.329Z,1.37
2023-01-15T07:47:08.068Z,1.10
2023-01-15T07:48:58.728Z,1.30
2023-01-15T07:50:32.933Z,1.03
2023-01-15T07:52:06.176Z,1.17
2023-01-15T07:53:39.247Z,1.30
2023-01-15T07:55:13.674Z,1.90
2023-01-15T07:56:46.895Z,1.80
2023-01-15T07:58:20.016Z,1.60
2023-01-15T07:59:53.277Z,1.40
2023-01-15T08:01:26.521Z,1.70
2023-01-15T08:03:01.323Z,1.83
2023-01-15T08:04:34.439Z,1.80
2023-01-15T08:06:08.063Z,3.47
2023-01-15T08:07:42.589Z,2.00
2023-01-15T08:09:15.773Z,2.20
2023-01-15T08:11:02.761Z,1.83
2023-01-15T08:12:53.928Z,1.40
2023-01-15T08:14:45.719Z,1.40
2023-01-15T08:16:18.952Z,1.40
2023-01-15T08:17:52.983Z,1.20
2023-01-15T08:19:29.813Z,1.13
2023-01-15T08:21:02.956Z,1.10
2023-01-15T08:22:36.340Z,1.03
2023-01-15T08:24:09.523Z,1.10
2023-01-15T08:25:42.640Z,1.20
2023-01-15T08:27:14.752Z,1.00
2023-01-15T08:28:47.892Z,1.20
2023-01-15T08:30:25.208Z,1.00
2023-01-15T08:31:58.289Z,1.20
2023-01-15T08:33:31.440Z,1.07
2023-01-15T08:35:06.694Z,1.00
2023-01-15T08:36:39.831Z,1.00
2023-01-15T08:38:12.912Z,1.03
2023-01-15T08:39:46.036Z,1.10
2023-01-15T08:41:19.181Z,1.20
2023-01-15T08:42:52.644Z,1.10
2023-01-15T08:44:24.968Z,1.20
2023-01-15T08:45:59.153Z,1.13
2023-01-15T08:47:32.966Z,1.30
2023-01-15T08:49:06.667Z,1.20
2023-01-15T08:50:41.225Z,1.13
2023-01-15T08:52:14.366Z,1.07
2023-01-15T08:53:46.506Z,0.87
2023-01-15T08:55:19.609Z,1.03
2023-01-15T08:56:52.965Z,1.23
2023-01-15T08:58:28.311Z,1.20
2023-01-15T09:00:01.718Z,1.13
2023-01-15T09:01:34.955Z,1.60
2023-01-15T09:03:08.397Z,1.40
2023-01-15T09:04:41.842Z,1.43
2023-01-15T09:06:16.391Z,1.40
2023-01-15T09:07:49.481Z,1.30
2023-01-15T09:09:22.665Z,1.37
2023-01-15T09:10:59.154Z,1.20
2023-01-15T09:12:32.729Z,1.27
2023-01-15T09:14:05.883Z,1.30
2023-01-15T09:15:41.736Z,1.60
2023-01-15T09:17:14.844Z,1.23
2023-01-15T09:18:48.075Z,1.70
2023-01-15T09:20:21.309Z,2.80
2023-01-15T09:21:55.783Z,2.47
2023-01-15T09:23:28.892Z,1.33
2023-01-15T09:25:02.220Z,1.53
2023-01-15T09:26:37.324Z,1.90
2023-01-15T09:28:10.496Z,1.70
2023-01-15T09:29:44.014Z,1.60
2023-01-15T09:31:17.234Z,2.10
2023-01-15T09:32:50.576Z,2.10
2023-01-15T09:34:23.695Z,2.20
2023-01-15T09:35:56.837Z,2.53
2023-01-15T09:37:31.508Z,2.10
2023-01-15T09:39:06.147Z,1.50
2023-01-15T09:40:48.532Z,1.70
2023-01-15T09:42:41.618Z,1.97
2023-01-15T09:44:28.073Z,1.90
2023-01-15T09:46:06.582Z,1.90
2023-01-15T09:47:47.919Z,1.93
2023-01-15T09:49:33.141Z,2.10
2023-01-15T09:51:22.264Z,1.93
2023-01-15T09:53:19.335Z,1.97
2023-01-15T09:55:01.293Z,1.90
2023-01-15T09:56:38.122Z,2.33
2023-01-15T09:58:14.451Z,2.80
2023-01-15T09:59:50.038Z,2.70
2023-01-15T10:01:27.963Z,3.13
2023-01-15T10:03:06.771Z,3.60
2023-01-15T10:04:44.445Z,3.70
2023-01-15T10:06:23.824Z,3.20
2023-01-15T10:08:02.089Z,2.90
2023-01-15T10:09:40.449Z,3.10
2023-01-15T10:11:53.103Z,2.40
2023-01-15T10:13:32.726Z,2.50
2023-01-15T10:15:24.391Z,2.27
2023-01-15T10:16:57.704Z,2.00
2023-01-15T10:18:31.145Z,2.00
2023-01-15T10:20:05.749Z,1.77
2023-01-15T10:21:48.055Z,1.67
2023-01-15T10:23:35.812Z,1.50
2023-01-15T10:25:16.882Z,2.23
2023-01-15T10:26:56.378Z,11.67
2023-01-15T10:28:31.722Z,3.73
2023-01-15T10:30:13.156Z,3.20
2023-01-15T10:31:53.675Z,2.80
2023-01-15T10:33:52.318Z,4.70
2023-01-15T10:35:35.821Z,3.40
2023-01-15T10:37:14.150Z,2.97
2023-01-15T10:38:57.293Z,2.57
2023-01-15T10:40:59.259Z,2.00
2023-01-15T10:42:44.320Z,2.40
2023-01-15T10:44:22.780Z,1.53
2023-01-15T10:45:59.799Z,1.63
2023-01-15T10:47:36.546Z,1.77
2023-01-15T10:49:14.660Z,1.20
2023-01-15T10:50:48.882Z,1.63
2023-01-15T10:52:28.183Z,1.30
2023-01-15T10:54:06.260Z,1.30
2023-01-15T10:55:45.381Z,0.87
2023-01-15T10:57:27.214Z,0.70
2023-01-15T10:59:08.660Z,0.77
2023-01-15T11:00:43.964Z,0.70
2023-01-15T11:02:26.207Z,0.53
2023-01-15T11:03:59.409Z,0.90
2023-01-15T11:05:34.261Z,0.70
2023-01-15T11:07:10.786Z,0.90
2023-01-15T11:10:42.437Z,0.57
2023-01-15T11:12:40.426Z,0.60
2023-01-15T11:14:42.436Z,0.60
2023-01-15T11:16:35.514Z,1.00
2023-01-15T11:18:32.978Z,0.60
2023-01-15T11:20:17.980Z,0.60
2023-01-15T11:21:52.270Z,0.60
2023-01-15T11:23:25.496Z,0.40
2023-01-15T11:25:01.431Z,0.67
2023-01-15T11:26:36.124Z,0.70
2023-01-15T11:28:09.917Z,0.60
2023-01-15T11:29:45.182Z,0.70
2023-01-15T11:31:18.730Z,0.50
2023-01-15T11:32:57.687Z,0.50
2023-01-15T11:34:30.771Z,0.77
2023-01-15T11:36:06.362Z,0.57
2023-01-15T11:37:39.438Z,0.70
2023-01-15T11:39:24.341Z,0.70
2023-01-15T11:40:59.736Z,0.70
2023-01-15T11:42:51.879Z,0.50
2023-01-15T11:44:42.798Z,0.50
2023-01-15T11:46:41.659Z,0.70
2023-01-15T11:48:35.329Z,0.73
2023-01-15T11:50:35.789Z,0.70
2023-01-15T11:52:12.232Z,0.70
2023-01-15T11:53:48.880Z,0.60
2023-01-15T11:55:25.486Z,0.70
2023-01-15T11:56:59.414Z,0.60
2023-01-15T11:58:40.183Z,0.57
2023-01-15T12:00:23.886Z,0.80
2023-01-15T12:02:01.117Z,0.60
2023-01-15T12:03:37.824Z,0.80
2023-01-15T12:05:18.149Z,0.70
2023-01-15T12:06:51.476Z,0.70
2023-01-15T12:08:40.637Z,1.00
2023-01-15T12:10:53.233Z,0.70
2023-01-15T12:12:37.292Z,0.60
2023-01-15T12:14:51.316Z,0.70
2023-01-15T12:16:33.680Z,0.60
2023-01-15T12:18:23.296Z,0.80
2023-01-15T12:20:07.322Z,0.70
2023-01-15T12:21:58.665Z,0.50
2023-01-15T12:23:55.837Z,0.60
2023-01-15T12:25:42.436Z,0.73
2023-01-15T12:27:52.414Z,0.50
2023-01-15T12:29:30.771Z,0.60
2023-01-15T12:31:11.403Z,0.60
2023-01-15T12:32:52.120Z,0.50
2023-01-15T12:34:28.734Z,0.90
2023-01-15T12:36:08.677Z,0.50
2023-01-15T12:37:46.254Z,0.60
2023-01-15T12:39:23.101Z,0.60
2023-01-15T12:41:00.901Z,0.70
2023-01-15T12:42:54.210Z,0.60
2023-01-15T12:44:52.489Z,0.60
2023-01-15T12:46:30.131Z,0.60
2023-01-15T12:48:10.035Z,0.53
2023-01-15T12:49:49.430Z,0.60
2023-01-15T12:51:29.485Z,0.80
2023-01-15T12:53:10.755Z,0.73
2023-01-15T12:54:51.283Z,0.60
2023-01-15T12:56:30.099Z,0.90
2023-01-15T12:58:04.942Z,0.90
2023-01-15T12:59:45.927Z,0.97
2023-01-15T13:01:25.901Z,1.37
2023-01-15T13:03:11.594Z,0.60
2023-01-15T13:04:50.901Z,0.70
2023-01-15T13:06:28.444Z,0.80
2023-01-15T13:08:06.238Z,0.60
2023-01-15T13:09:45.521Z,0.80
2023-01-15T13:11:18.823Z,0.60
2023-01-15T13:12:53.473Z,0.53
2023-01-15T13:14:26.752Z,0.60
2023-01-15T13:16:08.570Z,0.80
2023-01-15T13:17:55.534Z,0.90
2023-01-15T13:19:38.206Z,0.60
2023-01-15T13:21:15.110Z,0.70
2023-01-15T13:22:55.490Z,0.70
2023-01-15T13:24:48.344Z,0.60
2023-01-15T13:26:41.967Z,0.70
2023-01-15T13:28:29.211Z,0.80
2023-01-15T13:30:16.700Z,0.50
2023-01-15T13:32:01.953Z,0.70
2023-01-15T13:33:40.917Z,0.80
2023-01-15T13:35:26.233Z,0.60
2023-01-15T13:37:04.869Z,0.87
2023-01-15T13:38:42.798Z,0.90
2023-01-15T13:40:24.535Z,1.10
2023-01-15T13:42:15.022Z,1.07
2023-01-15T13:43:48.340Z,0.90
2023-01-15T13:45:34.809Z,0.83
2023-01-15T13:47:12.400Z,1.30
2023-01-15T13:48:47.621Z,0.90
2023-01-15T13:50:30.194Z,0.80
2023-01-15T13:52:05.101Z,0.80
2023-01-15T13:53:40.977Z,0.70
2023-01-15T13:55:21.989Z,0.97
2023-01-15T13:56:55.283Z,0.87
2023-01-15T13:58:30.302Z,0.70
2023-01-15T14:00:04.551Z,0.63
2023-01-15T14:01:45.311Z,0.80
2023-01-15T14:03:27.575Z,0.60
2023-01-15T14:05:03.482Z,0.57
2023-01-15T14:06:44.335Z,1.00
2023-01-15T14:08:18.284Z,0.60
2023-01-15T14:09:51.805Z,0.50
2023-01-15T14:11:37.299Z,0.80
2023-01-15T14:13:42.691Z,0.47
2023-01-15T14:15:30.786Z,0.73
2023-01-15T14:17:26.854Z,0.80
2023-01-15T14:19:35.141Z,0.90
2023-01-15T14:21:19.777Z,0.70
2023-01-15T14:23:05.002Z,0.67
2023-01-15T14:25:07.915Z,0.50
2023-01-15T14:26:50.671Z,0.50
2023-01-15T14:28:49.161Z,0.50
2023-01-15T14:30:37.886Z,0.70
2023-01-15T14:32:18.362Z,0.50
2023-01-15T14:34:06.701Z,0.67
2023-01-15T14:35:46.575Z,0.50
2023-01-15T14:37:27.481Z,0.50
2023-01-15T14:39:03.937Z,0.50
2023-01-15T14:40:40.720Z,0.50
2023-01-15T14:42:36.110Z,0.60
2023-01-15T14:44:09.248Z,0.77
2023-01-15T14:45:44.954Z,0.60
2023-01-15T14:47:31.800Z,0.50
2023-01-15T14:49:05.350Z,0.70
2023-01-15T14:50:39.732Z,0.50
2023-01-15T14:52:13.130Z,0.40
2023-01-15T14:53:49.304Z,0.50
2023-01-15T14:55:24.243Z,0.50
2023-01-15T14:57:00.780Z,0.57
2023-01-15T14:58:41.244Z,0.50
2023-01-15T15:00:18.208Z,0.50
2023-01-15T15:01:53.313Z,0.40
2023-01-15T15:03:35.265Z,0.40
2023-01-15T15:05:15.827Z,0.40
2023-01-15T15:06:52.750Z,0.47
2023-01-15T15:08:34.253Z,0.53
2023-01-15T15:10:13.010Z,0.60
2023-01-15T15:12:13.391Z,0.67
2023-01-15T15:13:48.562Z,0.50
2023-01-15T15:15:30.179Z,0.50
2023-01-15T15:17:08.391Z,0.80
2023-01-15T15:18:46.268Z,0.80
2023-01-15T15:20:31.601Z,0.70
2023-01-15T15:22:07.626Z,0.50
2023-01-15T15:23:47.267Z,0.63
2023-01-15T15:25:24.077Z,0.70
2023-01-15T15:26:58.540Z,0.50
2023-01-15T15:28:33.728Z,0.43
2023-01-15T15:30:09.204Z,0.50
2023-01-15T15:31:45.763Z,0.47
2023-01-15T15:33:21.986Z,0.50
2023-01-15T15:34:56.086Z,0.57
2023-01-15T15:36:32.146Z,0.40
2023-01-15T15:38:07.152Z,0.60
2023-01-15T15:39:45.976Z,0.70
2023-01-15T15:41:39.518Z,0.60
2023-01-15T15:43:35.080Z,0.50
2023-01-15T15:45:35.500Z,0.60
2023-01-15T15:47:37.609Z,0.40
2023-01-15T15:49:11.045Z,0.50
2023-01-15T15:50:44.286Z,0.43
2023-01-15T15:52:24.023Z,0.60
2023-01-15T15:54:17.059Z,0.60
2023-01-15T15:55:50.202Z,0.40
2023-01-15T15:57:23.370Z,0.70
2023-01-15T15:58:59.512Z,0.70
2023-01-15T16:00:36.011Z,0.70
2023-01-15T16:02:17.699Z,0.70
2023-01-15T16:03:50.893Z,0.50
2023-01-15T16:05:26.222Z,0.60
2023-01-15T16:06:59.406Z,0.70
2023-01-15T16:08:33.783Z,0.70
2023-01-15T16:10:15.302Z,0.77
2023-01-15T16:11:50.802Z,1.30
2023-01-15T16:13:27.399Z,1.57
2023-01-15T16:15:02.827Z,0.90
2023-01-15T16:16:36.225Z,0.60
2023-01-15T16:18:17.701Z,0.73
2023-01-15T16:19:51.166Z,0.50
2023-01-15T16:21:28.565Z,0.70
2023-01-15T16:23:03.932Z,0.80
2023-01-15T16:24:37.054Z,0.77
2023-01-15T16:26:19.694Z,0.80
2023-01-15T16:27:53.539Z,0.70
2023-01-15T16:29:29.383Z,0.90
2023-01-15T16:31:04.087Z,1.00
2023-01-15T16:32:37.408Z,0.80
2023-01-15T16:34:19.580Z,1.03
2023-01-15T16:35:58.321Z,0.90
2023-01-15T16:37:31.999Z,1.00
2023-01-15T16:39:06.422Z,0.90
2023-01-15T16:40:41.074Z,1.70
2023-01-15T16:42:27.292Z,0.97
2023-01-15T16:44:03.014Z,1.10
2023-01-15T16:45:38.602Z,0.90
2023-01-15T16:47:24.699Z,0.87
2023-01-15T16:49:20.228Z,0.80
2023-01-15T16:50:53.458Z,0.90
2023-01-15T16:52:51.366Z,0.90
2023-01-15T16:54:46.830Z,1.00
2023-01-15T16:56:48.373Z,1.00
2023-01-15T16:58:32.624Z,0.80
2023-01-15T17:00:08.777Z,1.03
2023-01-15T17:01:44.018Z,0.90
2023-01-15T17:03:20.922Z,0.70
2023-01-15T17:04:54.085Z,1.70
2023-01-15T17:06:28.781Z,0.90
2023-01-15T17:08:01.889Z,1.27
2023-01-15T17:09:37.222Z,1.00
2023-01-15T17:11:21.141Z,1.00
2023-01-15T17:12:56.963Z,0.90
2023-01-15T17:14:30.386Z,1.83
2023-01-15T17:16:07.572Z,1.00
2023-01-15T17:17:40.984Z,1.00
2023-01-15T17:19:16.549Z,0.90
2023-01-15T17:20:49.634Z,1.00
2023-01-15T17:22:28.043Z,0.90
2023-01-15T17:24:01.249Z,1.10
2023-01-15T17:25:35.154Z,1.00
2023-01-15T17:27:09.365Z,0.80
2023-01-15T17:28:42.443Z,0.80
2023-01-15T17:30:16.748Z,1.10
2023-01-15T17:31:49.843Z,1.00
2023-01-15T17:33:22.968Z,1.20
2023-01-15T17:34:57.441Z,0.90
2023-01-15T17:36:32.772Z,0.93
2023-01-15T17:38:07.364Z,0.80
2023-01-15T17:39:40.604Z,1.00
2023-01-15T17:41:15.170Z,1.00
2023-01-15T17:42:48.827Z,1.60
2023-01-15T17:44:21.911Z,1.03
2023-01-15T17:45:55.021Z,1.20
2023-01-15T17:47:28.076Z,1.23
2023-01-15T17:49:01.159Z,1.20
2023-01-15T17:50:35.805Z,1.40
2023-01-15T17:52:17.238Z,1.00
2023-01-15T17:53:50.295Z,0.93
2023-01-15T17:55:42.538Z,0.90
2023-01-15T17:57:33.060Z,0.87
2023-01-15T17:59:23.481Z,1.00
2023-01-15T18:01:14.018Z,0.80
2023-01-15T18:03:05.467Z,1.23
2023-01-15T18:04:59.608Z,1.20
2023-01-15T18:06:35.261Z,1.20
2023-01-15T18:08:11.128Z,1.43
2023-01-15T18:09:45.076Z,1.33
2023-01-15T18:11:18.136Z,1.40
2023-01-15T18:12:51.575Z,1.53
2023-01-15T18:14:26.466Z,1.27
2023-01-15T18:15:59.772Z,1.33
2023-01-15T18:17:33.172Z,1.20
2023-01-15T18:19:06.697Z,1.30
2023-01-15T18:20:39.767Z,1.10
2023-01-15T18:22:15.655Z,0.90
2023-01-15T18:23:48.705Z,1.00
2023-01-15T18:25:21.819Z,0.90
2023-01-15T18:26:55.590Z,1.00
2023-01-15T18:28:28.720Z,1.07
2023-01-15T18:30:01.826Z,1.07
2023-01-15T18:31:37.033Z,2.50
2023-01-15T18:33:10.181Z,2.20
2023-01-15T18:34:43.293Z,1.30
2023-01-15T18:36:16.601Z,1.00
2023-01-15T18:37:51.129Z,1.00
2023-01-15T18:39:24.218Z,1.10
2023-01-15T18:40:57.504Z,1.10
2023-01-15T18:42:48.126Z,1.30
2023-01-15T18:44:41.303Z,0.93
2023-01-15T18:46:31.883Z,1.10
2023-01-15T18:48:05.410Z,0.87
2023-01-15T18:49:38.714Z,0.80
2023-01-15T18:51:12.187Z,0.80
2023-01-15T18:52:50.345Z,0.93
2023-01-15T18:54:24.782Z,0.90
2023-01-15T18:56:02.990Z,0.90
2023-01-15T18:57:36.283Z,1.00
2023-01-15T18:59:10.819Z,0.90
2023-01-15T19:00:44.013Z,1.00
2023-01-15T19:02:17.669Z,1.00
2023-01-15T19:03:50.802Z,1.00
2023-01-15T19:05:23.922Z,1.03
2023-01-15T19:06:57.005Z,0.90
2023-01-15T19:08:30.060Z,0.80
2023-01-15T19:10:04.946Z,0.87
2023-01-15T19:11:38.021Z,0.80
2023-01-15T19:13:13.471Z,0.90
2023-01-15T19:15:04.013Z,0.70
2023-01-15T19:16:54.608Z,0.90
2023-01-15T19:18:42.866Z,0.70
2023-01-15T19:20:18.497Z,0.80
2023-01-15T19:22:11.959Z,1.13
2023-01-15T19:23:44.072Z,0.97
2023-01-15T19:25:20.272Z,0.70
2023-01-15T19:26:53.349Z,0.80
2023-01-15T19:28:26.492Z,0.80
2023-01-15T19:30:00.201Z,7.20
2023-01-15T19:31:39.350Z,1.27
2023-01-15T19:33:12.555Z,2.03
2023-01-15T19:34:45.613Z,1.40
2023-01-15T19:36:18.747Z,1.00
2023-01-15T19:37:53.286Z,0.70
2023-01-15T19:39:26.716Z,0.90
2023-01-15T19:41:21.134Z,0.90
2023-01-15T19:43:13.361Z,0.80
2023-01-15T19:45:03.810Z,0.90
2023-01-15T19:46:54.845Z,0.90
2023-01-15T19:48:46.465Z,0.70
2023-01-15T19:50:23.535Z,0.90
2023-01-15T19:52:13.743Z,0.80
2023-01-15T19:53:46.835Z,1.20
2023-01-15T19:55:21.691Z,0.80
2023-01-15T19:56:56.121Z,0.70
2023-01-15T19:58:29.214Z,0.70
2023-01-15T20:00:01.365Z,1.10
2023-01-15T20:01:34.565Z,0.90
2023-01-15T20:03:09.950Z,0.80
2023-01-15T20:04:43.140Z,1.10
2023-01-15T20:06:16.214Z,1.10
2023-01-15T20:07:49.353Z,1.40
2023-01-15T20:09:22.558Z,0.93
2023-01-15T20:10:55.715Z,1.07
2023-01-15T20:12:47.716Z,1.10
2023-01-15T20:14:20.064Z,0.90
2023-01-15T20:15:53.153Z,0.83
2023-01-15T20:17:28.586Z,0.90
2023-01-15T20:19:01.700Z,0.90
2023-01-15T20:20:34.938Z,0.83
2023-01-15T20:22:08.064Z,0.90
2023-01-15T20:23:42.011Z,0.87
2023-01-15T20:25:15.115Z,1.00
2023-01-15T20:26:48.194Z,0.90
2023-01-15T20:28:22.643Z,1.00
2023-01-15T20:29:55.971Z,0.90
2023-01-15T20:31:29.091Z,0.70
2023-01-15T20:33:02.203Z,1.10
2023-01-15T20:34:37.631Z,0.90
2023-01-15T20:36:11.075Z,0.97
2023-01-15T20:37:44.191Z,0.93
2023-01-15T20:39:18.286Z,0.80
2023-01-15T20:40:52.216Z,0.83
2023-01-15T20:42:43.069Z,0.93
2023-01-15T20:44:35.086Z,1.13
2023-01-15T20:46:10.245Z,0.83
2023-01-15T20:48:09.859Z,1.23
2023-01-15T20:49:43.073Z,1.10
2023-01-15T20:51:18.122Z,1.17
2023-01-15T20:52:52.822Z,1.07
2023-01-15T20:54:27.203Z,1.30
2023-01-15T20:56:00.752Z,0.90
2023-01-15T20:57:35.521Z,1.17
2023-01-15T20:59:08.606Z,0.97
2023-01-15T21:00:43.349Z,1.00
2023-01-15T21:02:16.457Z,1.20
2023-01-15T21:03:49.536Z,1.17
2023-01-15T21:05:22.218Z,1.17
2023-01-15T21:06:55.394Z,1.00
2023-01-15T21:08:29.441Z,1.20
2023-01-15T21:10:02.596Z,1.20
2023-01-15T21:11:35.739Z,0.93
2023-01-15T21:13:08.916Z,0.93
2023-01-15T21:14:42.000Z,1.17
2023-01-15T21:16:17.228Z,1.30
2023-01-15T21:17:50.332Z,1.37
2023-01-15T21:19:24.286Z,1.30
2023-01-15T21:20:57.462Z,1.30
2023-01-15T21:22:30.961Z,1.43
2023-01-15T21:24:04.070Z,1.10
2023-01-15T21:25:37.145Z,1.30
2023-01-15T21:27:10.266Z,1.07
2023-01-15T21:28:44.295Z,0.93
2023-01-15T21:30:17.695Z,1.30
2023-01-15T21:31:53.849Z,1.10
2023-01-15T21:33:27.198Z,1.07
2023-01-15T21:35:00.380Z,1.37
2023-01-15T21:36:33.484Z,1.03
2023-01-15T21:38:06.602Z,1.13
2023-01-15T21:39:39.669Z,1.37
2023-01-15T21:41:14.721Z,1.20
2023-01-15T21:43:05.052Z,1.10
2023-01-15T21:44:43.160Z,1.20
2023-01-15T21:46:16.262Z,1.50